sensor_id;sensor_type;location;lat;lon;timestamp;pressure;altitude;pressure_sealevel;temperature;humidity
53719;BME280;39616;48.872;9.390;2023-05-25T00:01:23;98753.81;;;9.53;67.75
53719;BME280;39616;48.872;9.390;2023-05-25T00:03:53;98755.47;;;9.49;67.77
53719;BME280;39616;48.872;9.390;2023-05-25T00:06:24;98756.56;;;9.48;68.02
53719;BME280;39616;48.872;9.390;2023-05-25T00:08:55;98758.44;;;9.48;67.95
53719;BME280;39616;48.872;9.390;2023-05-25T00:11:26;98751.44;;;9.41;67.99
53719;BME280;39616;48.872;9.390;2023-05-25T00:13:56;98755.78;;;9.37;68.04
53719;BME280;39616;48.872;9.390;2023-05-25T00:16:27;98744.16;;;9.37;68.21
53719;BME280;39616;48.872;9.390;2023-05-25T00:18:57;98749.53;;;9.42;68.50
53719;BME280;39616;48.872;9.390;2023-05-25T00:21:27;98756.59;;;9.43;69.23
53719;BME280;39616;48.872;9.390;2023-05-25T00:23:58;98741.41;;;9.42;70.19
53719;BME280;39616;48.872;9.390;2023-05-25T00:26:28;98749.81;;;9.40;69.27
53719;BME280;39616;48.872;9.390;2023-05-25T00:28:58;98751.19;;;9.43;70.05
53719;BME280;39616;48.872;9.390;2023-05-25T00:31:29;98751.38;;;9.52;71.24
53719;BME280;39616;48.872;9.390;2023-05-25T00:34:04;98755.72;;;9.53;72.55
53719;BME280;39616;48.872;9.390;2023-05-25T00:36:34;98748.38;;;9.53;71.25
53719;BME280;39616;48.872;9.390;2023-05-25T00:39:05;98752.19;;;9.57;69.22
53719;BME280;39616;48.872;9.390;2023-05-25T00:41:35;98747.00;;;9.61;68.83
53719;BME280;39616;48.872;9.390;2023-05-25T00:44:11;98752.66;;;9.64;68.45
53719;BME280;39616;48.872;9.390;2023-05-25T00:46:49;98745.88;;;9.72;69.15
53719;BME280;39616;48.872;9.390;2023-05-25T00:49:20;98744.78;;;9.73;67.97
53719;BME280;39616;48.872;9.390;2023-05-25T00:51:56;98743.69;;;9.74;68.93
53719;BME280;39616;48.872;9.390;2023-05-25T00:54:27;98738.56;;;9.73;67.95
53719;BME280;39616;48.872;9.390;2023-05-25T00:57:01;98743.44;;;9.71;68.22
53719;BME280;39616;48.872;9.390;2023-05-25T01:02:08;98741.25;;;9.73;70.92
53719;BME280;39616;48.872;9.390;2023-05-25T01:04:44;98738.59;;;9.62;69.24
53719;BME280;39616;48.872;9.390;2023-05-25T01:07:22;98733.50;;;9.56;68.71
53719;BME280;39616;48.872;9.390;2023-05-25T01:10:00;98735.94;;;9.52;69.00
53719;BME280;39616;48.872;9.390;2023-05-25T01:12:36;98733.81;;;9.49;68.92
53719;BME280;39616;48.872;9.390;2023-05-25T01:15:08;98725.97;;;9.42;69.29
53719;BME280;39616;48.872;9.390;2023-05-25T01:17:38;98732.53;;;9.36;69.33
53719;BME280;39616;48.872;9.390;2023-05-25T01:20:10;98726.31;;;9.31;69.92
53719;BME280;39616;48.872;9.390;2023-05-25T01:22:47;98725.53;;;9.25;69.92
53719;BME280;39616;48.872;9.390;2023-05-25T01:25:27;98731.53;;;9.17;70.53
53719;BME280;39616;48.872;9.390;2023-05-25T01:28:06;98729.38;;;9.09;70.46
53719;BME280;39616;48.872;9.390;2023-05-25T01:30:39;98728.31;;;9.05;70.66
53719;BME280;39616;48.872;9.390;2023-05-25T01:33:12;98725.34;;;9.01;70.82
53719;BME280;39616;48.872;9.390;2023-05-25T01:35:44;98733.47;;;9.01;70.63
53719;BME280;39616;48.872;9.390;2023-05-25T01:38:16;98728.34;;;9.00;71.41
53719;BME280;39616;48.872;9.390;2023-05-25T01:40:47;98729.69;;;8.97;71.00
53719;BME280;39616;48.872;9.390;2023-05-25T01:43:17;98725.94;;;8.93;71.98
53719;BME280;39616;48.872;9.390;2023-05-25T01:45:48;98733.78;;;8.89;72.13
53719;BME280;39616;48.872;9.390;2023-05-25T01:48:29;98736.25;;;8.81;71.96
53719;BME280;39616;48.872;9.390;2023-05-25T01:51:12;98735.72;;;8.79;71.99
53719;BME280;39616;48.872;9.390;2023-05-25T01:53:51;98734.91;;;8.78;72.53
53719;BME280;39616;48.872;9.390;2023-05-25T01:56:24;98732.47;;;8.77;72.63
53719;BME280;39616;48.872;9.390;2023-05-25T01:58:57;98737.88;;;8.77;73.00
53719;BME280;39616;48.872;9.390;2023-05-25T02:01:32;98731.38;;;8.73;72.93
53719;BME280;39616;48.872;9.390;2023-05-25T02:04:03;98726.81;;;8.68;73.04
53719;BME280;39616;48.872;9.390;2023-05-25T02:06:34;98725.47;;;8.65;72.55
53719;BME280;39616;48.872;9.390;2023-05-25T02:09:05;98727.91;;;8.62;72.87
53719;BME280;39616;48.872;9.390;2023-05-25T02:11:36;98727.38;;;8.60;72.98
53719;BME280;39616;48.872;9.390;2023-05-25T02:14:06;98720.91;;;8.56;72.93
53719;BME280;39616;48.872;9.390;2023-05-25T02:16:38;98724.94;;;8.58;72.83
53719;BME280;39616;48.872;9.390;2023-05-25T02:19:08;98720.34;;;8.54;73.10
53719;BME280;39616;48.872;9.390;2023-05-25T02:21:41;98720.91;;;8.51;73.35
53719;BME280;39616;48.872;9.390;2023-05-25T02:24:11;98723.63;;;8.51;73.46
53719;BME280;39616;48.872;9.390;2023-05-25T02:26:42;98716.31;;;8.51;73.13
53719;BME280;39616;48.872;9.390;2023-05-25T02:29:12;98714.97;;;8.49;73.49
53719;BME280;39616;48.872;9.390;2023-05-25T02:31:43;98711.44;;;8.48;73.40
53719;BME280;39616;48.872;9.390;2023-05-25T02:34:13;98715.25;;;8.47;74.07
53719;BME280;39616;48.872;9.390;2023-05-25T02:36:44;98714.97;;;8.43;73.96
53719;BME280;39616;48.872;9.390;2023-05-25T02:39:15;98714.97;;;8.43;74.58
53719;BME280;39616;48.872;9.390;2023-05-25T02:41:45;98710.38;;;8.44;73.87
53719;BME280;39616;48.872;9.390;2023-05-25T02:44:16;98721.72;;;8.41;74.18
53719;BME280;39616;48.872;9.390;2023-05-25T02:46:46;98717.66;;;8.38;73.99
53719;BME280;39616;48.872;9.390;2023-05-25T02:49:16;98721.47;;;8.37;74.09
53719;BME280;39616;48.872;9.390;2023-05-25T02:51:46;98718.47;;;8.39;74.37
53719;BME280;39616;48.872;9.390;2023-05-25T02:54:17;98712.25;;;8.38;73.93
53719;BME280;39616;48.872;9.390;2023-05-25T02:56:47;98717.66;;;8.38;74.36
53719;BME280;39616;48.872;9.390;2023-05-25T02:59:17;98724.16;;;8.42;74.06
53719;BME280;39616;48.872;9.390;2023-05-25T03:01:48;98730.09;;;8.44;74.08
53719;BME280;39616;48.872;9.390;2023-05-25T03:04:18;98727.13;;;8.46;73.65
53719;BME280;39616;48.872;9.390;2023-05-25T03:06:49;98726.06;;;8.47;75.25
53719;BME280;39616;48.872;9.390;2023-05-25T03:09:19;98732.81;;;8.44;74.91
53719;BME280;39616;48.872;9.390;2023-05-25T03:11:49;98727.94;;;8.41;75.60
53719;BME280;39616;48.872;9.390;2023-05-25T03:14:20;98730.88;;;8.35;76.69
53719;BME280;39616;48.872;9.390;2023-05-25T03:16:50;98732.50;;;8.31;76.41
53719;BME280;39616;48.872;9.390;2023-05-25T03:19:20;98733.59;;;8.30;75.74
53719;BME280;39616;48.872;9.390;2023-05-25T03:21:51;98739.25;;;8.28;76.33
53719;BME280;39616;48.872;9.390;2023-05-25T03:24:21;98743.59;;;8.24;76.87
53719;BME280;39616;48.872;9.390;2023-05-25T03:26:51;98737.66;;;8.22;77.30
53719;BME280;39616;48.872;9.390;2023-05-25T03:29:21;98738.72;;;8.21;77.07
53719;BME280;39616;48.872;9.390;2023-05-25T03:31:52;98736.59;;;8.18;77.68
53719;BME280;39616;48.872;9.390;2023-05-25T03:34:22;98731.19;;;8.18;78.22
53719;BME280;39616;48.872;9.390;2023-05-25T03:36:53;98732.25;;;8.17;80.13
53719;BME280;39616;48.872;9.390;2023-05-25T03:39:24;98743.31;;;8.15;79.40
53719;BME280;39616;48.872;9.390;2023-05-25T03:41:54;98738.22;;;8.14;81.72
53719;BME280;39616;48.872;9.390;2023-05-25T03:44:25;98744.69;;;8.08;83.20
53719;BME280;39616;48.872;9.390;2023-05-25T03:46:56;98748.72;;;8.05;82.08
53719;BME280;39616;48.872;9.390;2023-05-25T03:49:26;98750.34;;;8.06;82.41
53719;BME280;39616;48.872;9.390;2023-05-25T03:51:57;98740.38;;;8.07;80.65
53719;BME280;39616;48.872;9.390;2023-05-25T03:54:30;98749.25;;;8.12;78.62
53719;BME280;39616;48.872;9.390;2023-05-25T03:57:01;98747.09;;;8.19;78.46
53719;BME280;39616;48.872;9.390;2023-05-25T03:59:32;98750.63;;;8.25;78.08
53719;BME280;39616;48.872;9.390;2023-05-25T04:02:03;98744.69;;;8.33;77.62
53719;BME280;39616;48.872;9.390;2023-05-25T04:04:33;98749.53;;;8.36;77.36
53719;BME280;39616;48.872;9.390;2023-05-25T04:07:04;98742.25;;;8.37;77.07
53719;BME280;39616;48.872;9.390;2023-05-25T04:09:34;98746.31;;;8.44;77.74
53719;BME280;39616;48.872;9.390;2023-05-25T04:12:05;98749.00;;;8.39;77.01
53719;BME280;39616;48.872;9.390;2023-05-25T04:14:35;98755.53;;;8.43;76.74
53719;BME280;39616;48.872;9.390;2023-05-25T04:17:05;98749.56;;;8.52;76.60
53719;BME280;39616;48.872;9.390;2023-05-25T04:19:36;98753.88;;;8.53;76.16
53719;BME280;39616;48.872;9.390;2023-05-25T04:22:06;98764.16;;;8.56;75.93
53719;BME280;39616;48.872;9.390;2023-05-25T04:24:36;98756.81;;;8.61;75.76
53719;BME280;39616;48.872;9.390;2023-05-25T04:27:07;98757.63;;;8.67;75.70
53719;BME280;39616;48.872;9.390;2023-05-25T04:29:37;98754.66;;;8.74;75.48
53719;BME280;39616;48.872;9.390;2023-05-25T04:32:07;98758.94;;;8.80;75.91
53719;BME280;39616;48.872;9.390;2023-05-25T04:34:38;98754.66;;;8.84;75.54
53719;BME280;39616;48.872;9.390;2023-05-25T04:37:11;98766.25;;;8.89;75.65
53719;BME280;39616;48.872;9.390;2023-05-25T04:39:41;98767.03;;;8.90;74.86
53719;BME280;39616;48.872;9.390;2023-05-25T04:42:12;98770.00;;;8.93;75.23
53719;BME280;39616;48.872;9.390;2023-05-25T04:44:42;98776.50;;;8.92;75.04
53719;BME280;39616;48.872;9.390;2023-05-25T04:47:12;98771.59;;;9.10;74.91
53719;BME280;39616;48.872;9.390;2023-05-25T04:49:42;98769.16;;;9.08;75.17
53719;BME280;39616;48.872;9.390;2023-05-25T04:52:13;98769.94;;;9.19;74.64
53719;BME280;39616;48.872;9.390;2023-05-25T04:54:43;98779.41;;;9.22;74.67
53719;BME280;39616;48.872;9.390;2023-05-25T04:57:13;98775.31;;;9.29;74.68
53719;BME280;39616;48.872;9.390;2023-05-25T04:59:44;98775.00;;;9.41;74.93
53719;BME280;39616;48.872;9.390;2023-05-25T05:02:14;98783.94;;;9.36;74.57
53719;BME280;39616;48.872;9.390;2023-05-25T05:04:45;98782.28;;;9.46;74.00
53719;BME280;39616;48.872;9.390;2023-05-25T05:07:16;98770.56;;;9.60;73.45
53719;BME280;39616;48.872;9.390;2023-05-25T05:09:46;98772.44;;;9.65;73.58
53719;BME280;39616;48.872;9.390;2023-05-25T05:12:16;98775.94;;;9.71;72.94
53719;BME280;39616;48.872;9.390;2023-05-25T05:14:47;98779.94;;;9.78;73.36
53719;BME280;39616;48.872;9.390;2023-05-25T05:17:17;98784.19;;;9.95;72.34
53719;BME280;39616;48.872;9.390;2023-05-25T05:19:48;98793.38;;;9.99;72.74
53719;BME280;39616;48.872;9.390;2023-05-25T05:22:18;98795.03;;;9.89;72.60
53719;BME280;39616;48.872;9.390;2023-05-25T05:24:48;98799.25;;;10.11;72.60
53719;BME280;39616;48.872;9.390;2023-05-25T05:27:19;98805.44;;;10.16;71.94
53719;BME280;39616;48.872;9.390;2023-05-25T05:29:49;98808.84;;;10.37;72.21
53719;BME280;39616;48.872;9.390;2023-05-25T05:32:20;98803.56;;;10.51;71.12
53719;BME280;39616;48.872;9.390;2023-05-25T05:34:50;98811.16;;;10.54;70.80
53719;BME280;39616;48.872;9.390;2023-05-25T05:37:20;98810.78;;;10.66;70.94
53719;BME280;39616;48.872;9.390;2023-05-25T05:39:50;98809.19;;;10.60;70.32
53719;BME280;39616;48.872;9.390;2023-05-25T05:42:22;98813.78;;;10.64;71.12
53719;BME280;39616;48.872;9.390;2023-05-25T05:44:52;98816.34;;;10.80;70.16
53719;BME280;39616;48.872;9.390;2023-05-25T05:47:22;98807.00;;;10.91;70.08
53719;BME280;39616;48.872;9.390;2023-05-25T05:49:53;98814.69;;;11.08;69.67
53719;BME280;39616;48.872;9.390;2023-05-25T05:52:23;98812.63;;;11.00;69.72
53719;BME280;39616;48.872;9.390;2023-05-25T05:54:53;98807.81;;;10.92;69.96
53719;BME280;39616;48.872;9.390;2023-05-25T05:57:24;98814.03;;;10.97;70.42
53719;BME280;39616;48.872;9.390;2023-05-25T05:59:54;98817.59;;;11.17;70.18
53719;BME280;39616;48.872;9.390;2023-05-25T06:02:24;98823.28;;;11.20;69.77
53719;BME280;39616;48.872;9.390;2023-05-25T06:04:55;98825.22;;;11.15;69.32
53719;BME280;39616;48.872;9.390;2023-05-25T06:07:25;98826.84;;;11.40;69.14
53719;BME280;39616;48.872;9.390;2023-05-25T06:09:58;98834.91;;;11.45;68.96
53719;BME280;39616;48.872;9.390;2023-05-25T06:12:28;98827.66;;;11.64;69.55
53719;BME280;39616;48.872;9.390;2023-05-25T06:14:58;98833.28;;;11.49;68.74
53719;BME280;39616;48.872;9.390;2023-05-25T06:17:28;98823.75;;;11.70;68.73
53719;BME280;39616;48.872;9.390;2023-05-25T06:19:59;98827.13;;;11.86;68.03
53719;BME280;39616;48.872;9.390;2023-05-25T06:22:29;98827.66;;;11.83;68.25
53719;BME280;39616;48.872;9.390;2023-05-25T06:24:59;98825.66;;;12.13;67.63
53719;BME280;39616;48.872;9.390;2023-05-25T06:27:30;98829.31;;;12.03;67.38
53719;BME280;39616;48.872;9.390;2023-05-25T06:30:00;98832.47;;;11.91;68.02
53719;BME280;39616;48.872;9.390;2023-05-25T06:32:31;98829.84;;;12.24;67.57
53719;BME280;39616;48.872;9.390;2023-05-25T06:35:01;98827.63;;;12.45;66.81
53719;BME280;39616;48.872;9.390;2023-05-25T06:37:32;98828.72;;;12.44;66.46
53719;BME280;39616;48.872;9.390;2023-05-25T06:40:04;98838.97;;;12.66;66.10
53719;BME280;39616;48.872;9.390;2023-05-25T06:42:34;98834.59;;;12.84;65.79
53719;BME280;39616;48.872;9.390;2023-05-25T06:45:05;98843.59;;;12.98;65.25
53719;BME280;39616;48.872;9.390;2023-05-25T06:47:36;98843.38;;;12.94;64.73
53719;BME280;39616;48.872;9.390;2023-05-25T06:50:07;98839.16;;;13.02;65.54
53719;BME280;39616;48.872;9.390;2023-05-25T06:52:38;98839.91;;;12.75;65.75
53719;BME280;39616;48.872;9.390;2023-05-25T06:55:08;98844.06;;;12.53;66.72
53719;BME280;39616;48.872;9.390;2023-05-25T06:57:39;98850.66;;;12.66;66.90
53719;BME280;39616;48.872;9.390;2023-05-25T07:00:10;98847.34;;;12.69;66.71
53719;BME280;39616;48.872;9.390;2023-05-25T07:02:41;98852.94;;;12.78;65.94
53719;BME280;39616;48.872;9.390;2023-05-25T07:05:11;98855.13;;;13.09;65.87
53719;BME280;39616;48.872;9.390;2023-05-25T07:07:41;98850.69;;;13.13;66.29
53719;BME280;39616;48.872;9.390;2023-05-25T07:10:12;98854.13;;;13.18;66.01
53719;BME280;39616;48.872;9.390;2023-05-25T07:12:42;98862.53;;;13.36;65.57
53719;BME280;39616;48.872;9.390;2023-05-25T07:15:13;98860.41;;;13.33;65.51
53719;BME280;39616;48.872;9.390;2023-05-25T07:17:45;98857.22;;;12.98;66.66
53719;BME280;39616;48.872;9.390;2023-05-25T07:20:16;98865.25;;;12.89;67.37
53719;BME280;39616;48.872;9.390;2023-05-25T07:22:46;98860.56;;;13.09;66.48
53719;BME280;39616;48.872;9.390;2023-05-25T07:25:17;98856.22;;;13.21;66.55
53719;BME280;39616;48.872;9.390;2023-05-25T07:27:48;98872.38;;;13.18;66.82
53719;BME280;39616;48.872;9.390;2023-05-25T07:30:19;98870.31;;;13.42;66.59
53719;BME280;39616;48.872;9.390;2023-05-25T07:32:50;98869.63;;;13.64;65.99
53719;BME280;39616;48.872;9.390;2023-05-25T07:35:20;98863.78;;;13.71;65.91
53719;BME280;39616;48.872;9.390;2023-05-25T07:38:03;98864.25;;;13.87;65.57
53719;BME280;39616;48.872;9.390;2023-05-25T07:40:36;98859.75;;;14.18;64.28
53719;BME280;39616;48.872;9.390;2023-05-25T07:43:07;98862.50;;;14.55;63.91
53719;BME280;39616;48.872;9.390;2023-05-25T07:45:38;98858.34;;;14.57;63.14
53719;BME280;39616;48.872;9.390;2023-05-25T07:48:09;98869.69;;;14.14;63.25
53719;BME280;39616;48.872;9.390;2023-05-25T07:50:39;98869.28;;;14.07;63.67
53719;BME280;39616;48.872;9.390;2023-05-25T07:53:09;98870.38;;;15.01;62.01
53719;BME280;39616;48.872;9.390;2023-05-25T07:55:40;98863.28;;;15.31;60.61
53719;BME280;39616;48.872;9.390;2023-05-25T07:58:10;98861.09;;;15.73;61.08
53719;BME280;39616;48.872;9.390;2023-05-25T08:00:40;98863.50;;;15.75;59.92
53719;BME280;39616;48.872;9.390;2023-05-25T08:03:11;98850.88;;;16.48;57.67
53719;BME280;39616;48.872;9.390;2023-05-25T08:05:41;98859.00;;;15.79;59.05
53719;BME280;39616;48.872;9.390;2023-05-25T08:08:13;98862.28;;;16.15;57.87
53719;BME280;39616;48.872;9.390;2023-05-25T08:10:43;98855.41;;;16.61;57.16
53719;BME280;39616;48.872;9.390;2023-05-25T08:13:13;98853.13;;;16.81;57.08
53719;BME280;39616;48.872;9.390;2023-05-25T08:15:44;98848.78;;;16.88;57.18
53719;BME280;39616;48.872;9.390;2023-05-25T08:18:17;98847.81;;;16.84;56.60
53719;BME280;39616;48.872;9.390;2023-05-25T08:20:48;98850.50;;;17.57;55.19
53719;BME280;39616;48.872;9.390;2023-05-25T08:23:18;98853.44;;;17.05;57.02
53719;BME280;39616;48.872;9.390;2023-05-25T08:25:48;98849.94;;;18.02;54.67
53719;BME280;39616;48.872;9.390;2023-05-25T08:28:21;98845.69;;;18.34;53.69
53719;BME280;39616;48.872;9.390;2023-05-25T08:30:51;98847.34;;;18.69;53.71
53719;BME280;39616;48.872;9.390;2023-05-25T08:33:22;98859.34;;;18.22;53.94
53719;BME280;39616;48.872;9.390;2023-05-25T08:35:53;98856.44;;;17.59;55.97
53719;BME280;39616;48.872;9.390;2023-05-25T08:38:24;98860.13;;;17.63;55.43
53719;BME280;39616;48.872;9.390;2023-05-25T08:41:13;98860.44;;;18.00;54.95
53719;BME280;39616;48.872;9.390;2023-05-25T08:43:43;98863.59;;;16.96;56.69
53719;BME280;39616;48.872;9.390;2023-05-25T08:46:13;98870.84;;;16.75;57.18
53719;BME280;39616;48.872;9.390;2023-05-25T08:48:46;98875.69;;;16.95;57.49
53719;BME280;39616;48.872;9.390;2023-05-25T08:51:18;98871.19;;;16.64;57.86
53719;BME280;39616;48.872;9.390;2023-05-25T08:53:49;98865.69;;;16.99;57.58
53719;BME280;39616;48.872;9.390;2023-05-25T08:56:23;98865.22;;;16.36;58.43
53719;BME280;39616;48.872;9.390;2023-05-25T09:01:55;98865.34;;;17.09;56.87
53719;BME280;39616;48.872;9.390;2023-05-25T09:04:27;98858.53;;;18.01;56.21
53719;BME280;39616;48.872;9.390;2023-05-25T09:06:58;98857.75;;;17.92;55.24
53719;BME280;39616;48.872;9.390;2023-05-25T09:09:29;98853.94;;;17.46;55.88
53719;BME280;39616;48.872;9.390;2023-05-25T09:12:00;98853.84;;;18.22;54.97
53719;BME280;39616;48.872;9.390;2023-05-25T09:14:32;98849.03;;;18.82;54.86
53719;BME280;39616;48.872;9.390;2023-05-25T09:17:03;98853.25;;;18.38;54.66
53719;BME280;39616;48.872;9.390;2023-05-25T09:19:34;98862.53;;;18.66;53.62
53719;BME280;39616;48.872;9.390;2023-05-25T09:22:06;98854.06;;;18.92;53.12
53719;BME280;39616;48.872;9.390;2023-05-25T09:24:36;98852.84;;;19.02;55.15
53719;BME280;39616;48.872;9.390;2023-05-25T09:27:10;98855.47;;;18.98;52.71
53719;BME280;39616;48.872;9.390;2023-05-25T09:29:41;98850.72;;;19.77;51.20
53719;BME280;39616;48.872;9.390;2023-05-25T09:32:12;98850.75;;;20.30;49.17
53719;BME280;39616;48.872;9.390;2023-05-25T09:34:43;98859.63;;;20.11;50.25
53719;BME280;39616;48.872;9.390;2023-05-25T09:37:15;98861.69;;;20.67;49.93
53719;BME280;39616;48.872;9.390;2023-05-25T09:39:50;98855.31;;;20.38;49.11
53719;BME280;39616;48.872;9.390;2023-05-25T09:42:20;98865.50;;;19.85;49.98
53719;BME280;39616;48.872;9.390;2023-05-25T09:44:50;98855.06;;;20.56;49.48
53719;BME280;39616;48.872;9.390;2023-05-25T09:47:21;98847.09;;;21.54;47.78
53719;BME280;39616;48.872;9.390;2023-05-25T09:49:52;98850.84;;;21.97;46.46
53719;BME280;39616;48.872;9.390;2023-05-25T09:52:22;98854.66;;;22.08;46.69
53719;BME280;39616;48.872;9.390;2023-05-25T09:54:53;98863.88;;;20.89;48.13
53719;BME280;39616;48.872;9.390;2023-05-25T09:57:25;98859.56;;;21.20;48.83
53719;BME280;39616;48.872;9.390;2023-05-25T09:59:56;98865.59;;;20.66;48.57
53719;BME280;39616;48.872;9.390;2023-05-25T10:02:26;98868.91;;;21.15;49.28
53719;BME280;39616;48.872;9.390;2023-05-25T10:04:57;98860.31;;;21.33;48.98
53719;BME280;39616;48.872;9.390;2023-05-25T10:07:27;98864.28;;;21.04;48.78
53719;BME280;39616;48.872;9.390;2023-05-25T10:10:03;98867.66;;;21.13;48.69
53719;BME280;39616;48.872;9.390;2023-05-25T10:12:35;98863.00;;;21.45;48.48
53719;BME280;39616;48.872;9.390;2023-05-25T10:15:08;98863.28;;;20.68;49.82
53719;BME280;39616;48.872;9.390;2023-05-25T10:17:51;98874.63;;;20.14;51.10
53719;BME280;39616;48.872;9.390;2023-05-25T10:20:22;98856.00;;;21.04;49.69
53719;BME280;39616;48.872;9.390;2023-05-25T10:22:59;98846.97;;;21.35;48.04
53719;BME280;39616;48.872;9.390;2023-05-25T10:25:34;98868.81;;;20.84;48.93
53719;BME280;39616;48.872;9.390;2023-05-25T10:30:41;98844.94;;;21.48;47.64
53719;BME280;39616;48.872;9.390;2023-05-25T10:33:12;98848.69;;;21.39;48.09
53719;BME280;39616;48.872;9.390;2023-05-25T10:35:42;98842.53;;;21.78;48.07
53719;BME280;39616;48.872;9.390;2023-05-25T10:38:13;98846.16;;;22.52;46.91
53719;BME280;39616;48.872;9.390;2023-05-25T10:40:45;98854.00;;;21.32;47.93
53719;BME280;39616;48.872;9.390;2023-05-25T10:43:22;98847.16;;;21.74;47.53
53719;BME280;39616;48.872;9.390;2023-05-25T10:45:53;98853.34;;;21.07;48.31
53719;BME280;39616;48.872;9.390;2023-05-25T10:48:34;98848.59;;;20.64;49.26
53719;BME280;39616;48.872;9.390;2023-05-25T10:51:05;98856.13;;;20.26;50.65
53719;BME280;39616;48.872;9.390;2023-05-25T10:53:36;98851.19;;;21.44;49.34
53719;BME280;39616;48.872;9.390;2023-05-25T10:56:06;98844.88;;;21.16;48.03
53719;BME280;39616;48.872;9.390;2023-05-25T10:58:42;98848.88;;;21.03;48.93
53719;BME280;39616;48.872;9.390;2023-05-25T11:01:16;98845.41;;;21.06;48.59
53719;BME280;39616;48.872;9.390;2023-05-25T11:03:53;98842.69;;;20.25;50.37
53719;BME280;39616;48.872;9.390;2023-05-25T11:09:28;98858.72;;;20.88;49.62
53719;BME280;39616;48.872;9.390;2023-05-25T11:12:02;98844.41;;;21.58;48.37
53719;BME280;39616;48.872;9.390;2023-05-25T11:14:33;98843.41;;;21.50;48.35
53719;BME280;39616;48.872;9.390;2023-05-25T11:22:17;98844.72;;;22.39;46.20
53719;BME280;39616;48.872;9.390;2023-05-25T11:24:50;98840.69;;;22.01;47.10
53719;BME280;39616;48.872;9.390;2023-05-25T11:27:22;98834.53;;;21.73;48.71
53719;BME280;39616;48.872;9.390;2023-05-25T11:29:53;98828.69;;;21.93;47.37
53719;BME280;39616;48.872;9.390;2023-05-25T11:32:25;98822.38;;;21.93;47.82
53719;BME280;39616;48.872;9.390;2023-05-25T11:34:57;98829.63;;;21.66;47.74
53719;BME280;39616;48.872;9.390;2023-05-25T11:37:28;98836.91;;;21.42;48.29
53719;BME280;39616;48.872;9.390;2023-05-25T11:40:00;98830.56;;;21.10;48.55
53719;BME280;39616;48.872;9.390;2023-05-25T11:42:36;98831.47;;;21.30;49.07
53719;BME280;39616;48.872;9.390;2023-05-25T11:45:10;98823.13;;;21.74;47.79
53719;BME280;39616;48.872;9.390;2023-05-25T11:47:43;98836.41;;;21.53;47.61
53719;BME280;39616;48.872;9.390;2023-05-25T11:50:16;98824.16;;;21.85;47.57
53719;BME280;39616;48.872;9.390;2023-05-25T11:52:47;98824.44;;;21.80;47.70
53719;BME280;39616;48.872;9.390;2023-05-25T11:55:17;98834.09;;;20.95;48.57
53719;BME280;39616;48.872;9.390;2023-05-25T11:57:54;98831.41;;;20.83;49.60
53719;BME280;39616;48.872;9.390;2023-05-25T12:00:26;98828.09;;;21.84;47.13
53719;BME280;39616;48.872;9.390;2023-05-25T12:02:57;98826.84;;;21.18;48.58
53719;BME280;39616;48.872;9.390;2023-05-25T12:05:36;98830.44;;;21.35;48.62
53719;BME280;39616;48.872;9.390;2023-05-25T12:08:06;98826.78;;;21.46;48.03
53719;BME280;39616;48.872;9.390;2023-05-25T12:10:48;98820.38;;;21.42;48.22
53719;BME280;39616;48.872;9.390;2023-05-25T12:13:21;98827.28;;;21.68;48.29
53719;BME280;39616;48.872;9.390;2023-05-25T12:15:54;98825.94;;;21.30;48.31
53719;BME280;39616;48.872;9.390;2023-05-25T12:18:29;98819.59;;;21.93;47.75
53719;BME280;39616;48.872;9.390;2023-05-25T12:21:00;98831.03;;;21.91;47.23
53719;BME280;39616;48.872;9.390;2023-05-25T12:23:30;98821.66;;;21.96;47.62
53719;BME280;39616;48.872;9.390;2023-05-25T12:26:14;98825.41;;;22.23;46.52
53719;BME280;39616;48.872;9.390;2023-05-25T12:29:02;98817.28;;;21.44;48.06
53719;BME280;39616;48.872;9.390;2023-05-25T12:31:37;98818.34;;;21.90;47.47
53719;BME280;39616;48.872;9.390;2023-05-25T12:34:13;98815.75;;;21.62;48.31
53719;BME280;39616;48.872;9.390;2023-05-25T12:36:47;98815.13;;;22.04;47.64
53719;BME280;39616;48.872;9.390;2023-05-25T12:42:02;98824.31;;;21.92;47.88
53719;BME280;39616;48.872;9.390;2023-05-25T12:44:33;98822.31;;;21.74;47.88
53719;BME280;39616;48.872;9.390;2023-05-25T12:47:12;98820.91;;;21.32;47.70
53719;BME280;39616;48.872;9.390;2023-05-25T12:49:47;98825.34;;;21.21;48.47
53719;BME280;39616;48.872;9.390;2023-05-25T12:52:34;98825.66;;;21.04;48.62
53719;BME280;39616;48.872;9.390;2023-05-25T12:57:47;98825.09;;;21.58;47.97
53719;BME280;39616;48.872;9.390;2023-05-25T13:00:25;98817.78;;;21.65;48.09
53719;BME280;39616;48.872;9.390;2023-05-25T13:02:57;98822.59;;;22.04;47.14
53719;BME280;39616;48.872;9.390;2023-05-25T13:05:30;98826.34;;;21.44;48.08
53719;BME280;39616;48.872;9.390;2023-05-25T13:08:02;98822.56;;;21.84;47.68
53719;BME280;39616;48.872;9.390;2023-05-25T13:10:37;98818.84;;;22.12;46.50
53719;BME280;39616;48.872;9.390;2023-05-25T13:13:07;98812.38;;;22.39;47.02
53719;BME280;39616;48.872;9.390;2023-05-25T13:15:37;98818.59;;;21.66;47.66
53719;BME280;39616;48.872;9.390;2023-05-25T13:18:07;98807.22;;;22.57;47.00
53719;BME280;39616;48.872;9.390;2023-05-25T13:20:38;98824.84;;;22.14;46.42
53719;BME280;39616;48.872;9.390;2023-05-25T13:23:08;98811.06;;;21.82;47.67
53719;BME280;39616;48.872;9.390;2023-05-25T13:25:38;98812.72;;;22.03;48.55
53719;BME280;39616;48.872;9.390;2023-05-25T13:28:09;98805.59;;;22.02;47.14
53719;BME280;39616;48.872;9.390;2023-05-25T13:30:39;98811.41;;;21.97;47.87
53719;BME280;39616;48.872;9.390;2023-05-25T13:33:11;98812.97;;;21.46;47.62
53719;BME280;39616;48.872;9.390;2023-05-25T13:35:41;98813.75;;;21.31;47.93
53719;BME280;39616;48.872;9.390;2023-05-25T13:38:26;98805.44;;;21.43;47.35
53719;BME280;39616;48.872;9.390;2023-05-25T13:40:59;98801.19;;;21.81;47.96
53719;BME280;39616;48.872;9.390;2023-05-25T13:43:29;98800.47;;;22.19;46.64
53719;BME280;39616;48.872;9.390;2023-05-25T13:45:59;98792.56;;;22.37;46.03
53719;BME280;39616;48.872;9.390;2023-05-25T13:48:30;98802.09;;;22.21;46.56
53719;BME280;39616;48.872;9.390;2023-05-25T13:51:00;98807.72;;;21.73;47.52